Time;durP1;ratioP1;P1;durP2;ratioP2;P2;SDS_P1;SDS_P2;PMS_P1;PMS_P2;Temp;Humidity;BMP_temperature;BMP_pressure;BME280_temperature;BME280_humidity;BME280_pressure;Samples;Min_cycle;Max_cycle;Signal;HPM_P1;HPM_P2
2024/04/24 00:00:08;;;;;;;7.10;4.38;;;;;;;;;;5171035;27;20026;-75
2024/04/24 00:02:34;;;;;;;9.43;5.10;;;;;;;;;;5171517;27;20061;-74
2024/04/24 00:05:03;;;;;;;10.50;4.87;;;;;;;;;;5173630;27;20008;-75
2024/04/24 00:07:29;;;;;;;9.07;4.80;;;;;;;;;;5172302;27;20022;-74
2024/04/24 00:09:55;;;;;;;6.82;4.65;;;;;;;;;;5171805;27;20433;-74
2024/04/24 00:12:20;;;;;;;9.53;5.33;;;;;;;;;;5172162;27;20004;-74
2024/04/24 00:14:46;;;;;;;9.27;5.25;;;;;;;;;;5171619;27;20020;-74
2024/04/24 00:17:12;;;;;;;10.63;5.03;;;;;;;;;;5171848;27;20478;-75
2024/04/24 00:19:38;;;;;;;10.57;5.23;;;;;;;;;;5173433;27;20030;-76
2024/04/24 00:22:03;;;;;;;15.68;4.68;;;;;;;;;;5172274;27;20004;-76
2024/04/24 00:24:29;;;;;;;11.33;5.23;;;;;;;;;;5170873;27;20032;-76
2024/04/24 00:26:57;;;;;;;10.77;5.13;;;;;;;;;;5173207;27;20028;-75
2024/04/24 00:29:23;;;;;;;10.37;5.30;;;;;;;;;;5173610;27;20009;-75
2024/04/24 00:31:50;;;;;;;13.23;5.97;;;;;;;;;;5172956;27;20084;-75
2024/04/24 00:34:16;;;;;;;7.27;5.17;;;;;;;;;;5198666;27;20016;-74
2024/04/24 00:36:41;;;;;;;8.23;4.67;;;;;;;;;;5141256;27;20531;-75
2024/04/24 00:39:07;;;;;;;9.87;4.73;;;;;;;;;;5139141;27;20032;-75
2024/04/24 00:41:32;;;;;;;9.77;5.53;;;;;;;;;;5144894;27;20430;-75
2024/04/24 00:43:58;;;;;;;8.10;5.10;;;;;;;;;;5172602;27;20503;-74
2024/04/24 00:46:26;;;;;;;9.47;4.77;;;;;;;;;;5171155;27;20020;-76
2024/04/24 00:48:53;;;;;;;7.87;4.60;;;;;;;;;;5171177;27;20080;-75
2024/04/24 00:51:20;;;;;;;7.72;4.53;;;;;;;;;;5172550;27;20004;-75
2024/04/24 00:53:46;;;;;;;9.23;5.40;;;;;;;;;;5170316;27;20016;-75
2024/04/24 00:56:12;;;;;;;7.63;4.60;;;;;;;;;;5198324;27;20005;-75
2024/04/24 00:58:38;;;;;;;6.67;4.80;;;;;;;;;;5172764;27;20015;-74
2024/04/24 01:01:05;;;;;;;8.25;4.43;;;;;;;;;;5172073;27;20020;-75
2024/04/24 01:03:31;;;;;;;9.27;5.20;;;;;;;;;;5170732;27;20000;-74
2024/04/24 01:05:56;;;;;;;10.23;4.57;;;;;;;;;;5143893;27;20000;-76
2024/04/24 01:08:22;;;;;;;9.82;5.32;;;;;;;;;;5170644;27;20490;-75
2024/04/24 01:10:59;;;;;;;8.47;4.90;;;;;;;;;;5171599;27;20032;-75
2024/04/24 01:13:25;;;;;;;8.70;4.87;;;;;;;;;;5143978;27;20083;-75
2024/04/24 01:15:58;;;;;;;8.03;4.40;;;;;;;;;;5172196;27;20296;-75
2024/04/24 01:18:26;;;;;;;7.03;4.47;;;;;;;;;;5170970;27;20012;-75
2024/04/24 01:20:54;;;;;;;8.03;4.77;;;;;;;;;;5171844;27;20048;-76
2024/04/24 01:23:44;;;;;;;9.70;4.47;;;;;;;;;;5170826;27;20004;-76
2024/04/24 01:26:17;;;;;;;8.73;4.80;;;;;;;;;;5197591;27;20008;-75
2024/04/24 01:28:43;;;;;;;7.83;4.60;;;;;;;;;;5170748;27;20004;-75
2024/04/24 01:31:08;;;;;;;10.90;4.37;;;;;;;;;;5169972;27;20012;-76
2024/04/24 01:33:34;;;;;;;9.53;4.63;;;;;;;;;;5169983;27;20295;-74
2024/04/24 01:35:59;;;;;;;11.07;4.40;;;;;;;;;;5169995;27;20463;-76
2024/04/24 01:38:25;;;;;;;8.40;4.27;;;;;;;;;;5198189;27;20084;-75
2024/04/24 01:40:51;;;;;;;9.37;4.80;;;;;;;;;;5197563;27;20450;-74
2024/04/24 01:43:16;;;;;;;7.70;4.60;;;;;;;;;;5169958;27;20008;-75
2024/04/24 01:45:42;;;;;;;7.10;4.30;;;;;;;;;;5172339;27;20492;-75
2024/04/24 01:48:07;;;;;;;7.83;4.50;;;;;;;;;;5197619;27;20437;-75
2024/04/24 01:50:33;;;;;;;9.80;4.97;;;;;;;;;;5172024;27;20004;-76
2024/04/24 01:52:59;;;;;;;7.63;4.67;;;;;;;;;;5181441;27;20401;-76
2024/04/24 01:55:24;;;;;;;5.53;3.80;;;;;;;;;;5172249;27;20005;-76
2024/04/24 01:57:50;;;;;;;7.87;4.53;;;;;;;;;;5171702;27;20012;-75
2024/04/24 02:00:15;;;;;;;9.70;5.40;;;;;;;;;;5169957;27;20005;-74
2024/04/24 02:02:41;;;;;;;8.85;4.72;;;;;;;;;;5171580;27;20000;-75
2024/04/24 02:05:07;;;;;;;9.00;5.25;;;;;;;;;;5172641;27;20099;-75
2024/04/24 02:07:32;;;;;;;9.10;4.67;;;;;;;;;;5172871;27;20085;-74
2024/04/24 02:09:58;;;;;;;5.60;4.77;;;;;;;;;;5197494;27;20001;-74
2024/04/24 02:12:24;;;;;;;11.00;4.43;;;;;;;;;;5171736;27;20004;-76
2024/04/24 02:14:49;;;;;;;13.63;5.43;;;;;;;;;;5171354;27;20023;-74
2024/04/24 02:17:15;;;;;;;7.83;4.93;;;;;;;;;;5169831;27;20088;-75
2024/04/24 02:19:42;;;;;;;10.13;4.80;;;;;;;;;;5171632;27;20083;-74
2024/04/24 02:22:11;;;;;;;7.27;4.50;;;;;;;;;;5168307;27;20370;-74
2024/04/24 02:27:20;;;;;;;6.77;4.90;;;;;;;;;;5171816;27;20020;-75
2024/04/24 02:29:46;;;;;;;7.13;4.83;;;;;;;;;;5171515;27;20009;-77
2024/04/24 02:32:11;;;;;;;7.47;4.93;;;;;;;;;;5168741;27;20013;-75
2024/04/24 02:34:37;;;;;;;8.60;4.93;;;;;;;;;;5169403;27;20028;-76
2024/04/24 02:37:04;;;;;;;10.20;4.73;;;;;;;;;;5169245;27;20015;-74
2024/04/24 02:39:29;;;;;;;11.43;4.97;;;;;;;;;;5170017;27;20138;-75
2024/04/24 02:41:55;;;;;;;7.30;4.43;;;;;;;;;;5169081;27;20009;-75
2024/04/24 02:44:20;;;;;;;7.23;4.90;;;;;;;;;;5169225;27;20019;-76
2024/04/24 02:46:46;;;;;;;9.53;4.53;;;;;;;;;;5171336;27;20023;-75
2024/04/24 02:49:11;;;;;;;8.87;5.57;;;;;;;;;;5169079;27;20439;-75
2024/04/24 02:51:37;;;;;;;6.43;4.50;;;;;;;;;;5172166;27;20004;-77
2024/04/24 02:54:02;;;;;;;12.20;5.07;;;;;;;;;;5173007;27;20023;-74
2024/04/24 02:56:28;;;;;;;6.53;4.80;;;;;;;;;;5170668;27;20350;-74
2024/04/24 02:58:54;;;;;;;8.27;4.57;;;;;;;;;;5171936;27;20508;-75
2024/04/24 03:01:19;;;;;;;9.73;4.83;;;;;;;;;;5171522;27;20457;-76
2024/04/24 03:03:45;;;;;;;10.27;4.87;;;;;;;;;;5169705;27;20465;-76
2024/04/24 03:06:10;;;;;;;7.40;4.37;;;;;;;;;;5196854;27;20004;-75
2024/04/24 03:08:36;;;;;;;10.67;4.87;;;;;;;;;;5169893;27;20340;-76
2024/04/24 03:11:01;;;;;;;7.20;4.30;;;;;;;;;;5171179;27;20415;-76
2024/04/24 03:13:27;;;;;;;7.40;4.70;;;;;;;;;;5199471;27;20083;-77
2024/04/24 03:15:52;;;;;;;11.00;5.30;;;;;;;;;;5175528;27;20560;-76
2024/04/24 03:18:18;;;;;;;8.07;4.50;;;;;;;;;;5177839;27;20005;-75
2024/04/24 03:20:44;;;;;;;8.17;4.57;;;;;;;;;;5174258;27;20004;-76
2024/04/24 03:23:10;;;;;;;7.00;5.07;;;;;;;;;;5173655;27;20016;-76
2024/04/24 03:25:35;;;;;;;8.03;4.67;;;;;;;;;;5174552;27;20465;-78
2024/04/24 03:28:02;;;;;;;7.13;4.37;;;;;;;;;;5175446;27;20005;-75
2024/04/24 03:30:27;;;;;;;7.83;4.90;;;;;;;;;;5173172;27;20039;-76
2024/04/24 03:32:53;;;;;;;7.00;4.30;;;;;;;;;;5172389;27;20109;-75
2024/04/24 03:35:18;;;;;;;14.13;5.10;;;;;;;;;;5173021;27;20345;-76
2024/04/24 03:37:44;;;;;;;10.00;4.43;;;;;;;;;;5172441;27;20008;-77
2024/04/24 03:40:10;;;;;;;11.43;5.10;;;;;;;;;;5171946;27;20433;-74
2024/04/24 03:42:36;;;;;;;13.67;5.17;;;;;;;;;;5174607;27;20029;-74
2024/04/24 03:45:02;;;;;;;11.47;4.53;;;;;;;;;;5172451;27;20754;-75
2024/04/24 03:47:27;;;;;;;8.87;4.87;;;;;;;;;;5172232;27;20016;-76
2024/04/24 03:49:53;;;;;;;10.10;4.93;;;;;;;;;;5174125;27;20020;-75
2024/04/24 03:52:20;;;;;;;10.80;4.67;;;;;;;;;;5173461;27;20036;-74
2024/04/24 03:54:46;;;;;;;13.27;7.63;;;;;;;;;;5172536;27;20008;-75
2024/04/24 03:57:11;;;;;;;8.60;5.30;;;;;;;;;;5173520;27;20023;-75
2024/04/24 03:59:37;;;;;;;6.93;4.83;;;;;;;;;;5171986;27;20022;-73
2024/04/24 04:02:03;;;;;;;11.80;5.43;;;;;;;;;;5171487;27;20004;-75
2024/04/24 04:04:28;;;;;;;11.37;5.73;;;;;;;;;;5173891;27;20063;-77
2024/04/24 04:06:54;;;;;;;9.57;5.63;;;;;;;;;;5173796;27;20004;-76
2024/04/24 04:09:19;;;;;;;11.27;6.33;;;;;;;;;;5173829;27;20016;-76
2024/04/24 04:11:45;;;;;;;13.10;6.30;;;;;;;;;;5171500;27;20461;-75
2024/04/24 04:14:10;;;;;;;11.13;6.07;;;;;;;;;;5199170;27;20009;-75
2024/04/24 04:16:36;;;;;;;16.20;6.67;;;;;;;;;;5171792;27;20031;-75
2024/04/24 04:19:02;;;;;;;21.93;6.23;;;;;;;;;;5173524;27;20013;-74
2024/04/24 04:21:27;;;;;;;11.30;6.10;;;;;;;;;;5171074;27;20004;-76
2024/04/24 04:23:54;;;;;;;9.43;6.00;;;;;;;;;;5171628;27;20004;-76
2024/04/24 04:26:20;;;;;;;9.73;6.13;;;;;;;;;;5173332;27;20502;-76
2024/04/24 04:28:45;;;;;;;12.93;6.07;;;;;;;;;;5173553;27;20005;-75
2024/04/24 04:31:11;;;;;;;10.53;6.10;;;;;;;;;;5171373;27;20409;-75
2024/04/24 04:33:36;;;;;;;11.33;5.47;;;;;;;;;;5198863;27;20414;-76
2024/04/24 04:36:05;;;;;;;10.83;6.23;;;;;;;;;;5171431;27;20004;-75
2024/04/24 04:38:34;;;;;;;8.47;5.40;;;;;;;;;;5171769;27;20014;-76
2024/04/24 04:41:00;;;;;;;10.50;5.83;;;;;;;;;;5198350;27;20008;-75
2024/04/24 04:43:25;;;;;;;13.93;6.90;;;;;;;;;;5173173;27;20417;-76
2024/04/24 04:45:51;;;;;;;10.93;5.77;;;;;;;;;;5172196;27;20019;-76
2024/04/24 04:48:16;;;;;;;9.67;5.67;;;;;;;;;;5172817;27;20040;-76
2024/04/24 04:50:42;;;;;;;10.10;6.07;;;;;;;;;;5171267;27;20060;-76
2024/04/24 04:53:08;;;;;;;16.37;5.93;;;;;;;;;;5173120;27;20008;-76
2024/04/24 04:55:33;;;;;;;12.63;6.77;;;;;;;;;;5171597;27;20023;-75
2024/04/24 04:58:02;;;;;;;8.60;4.97;;;;;;;;;;5171191;27;20016;-76
2024/04/24 05:00:28;;;;;;;10.73;5.70;;;;;;;;;;5171333;27;20060;-75
2024/04/24 05:02:54;;;;;;;10.73;6.13;;;;;;;;;;5173551;27;20010;-75
2024/04/24 05:05:20;;;;;;;13.87;6.53;;;;;;;;;;5171242;27;20014;-75
2024/04/24 05:07:45;;;;;;;14.47;6.80;;;;;;;;;;5171291;27;20060;-75
2024/04/24 05:10:12;;;;;;;15.63;6.83;;;;;;;;;;5172665;27;20016;-74
2024/04/24 05:12:37;;;;;;;11.13;5.03;;;;;;;;;;5170841;27;20022;-76
2024/04/24 05:15:03;;;;;;;8.17;5.17;;;;;;;;;;5170393;27;20016;-75
2024/04/24 05:17:29;;;;;;;18.07;6.17;;;;;;;;;;5173620;27;20079;-75
2024/04/24 05:19:54;;;;;;;14.07;6.53;;;;;;;;;;5172422;27;20020;-77
2024/04/24 05:22:21;;;;;;;11.43;6.23;;;;;;;;;;5172583;27;20353;-75
2024/04/24 05:24:46;;;;;;;18.47;6.23;;;;;;;;;;5171919;27;20001;-77
2024/04/24 05:29:56;;;;;;;9.60;5.60;;;;;;;;;;5172768;27;20485;-75
2024/04/24 05:32:21;;;;;;;12.97;6.47;;;;;;;;;;5170110;27;20017;-77
2024/04/24 05:34:47;;;;;;;10.03;6.27;;;;;;;;;;5170503;27;20108;-76
2024/04/24 05:37:12;;;;;;;15.47;8.53;;;;;;;;;;5165188;27;20016;-75
2024/04/24 05:39:38;;;;;;;17.77;7.77;;;;;;;;;;5154598;27;20207;-76
2024/04/24 05:42:04;;;;;;;13.57;6.80;;;;;;;;;;5172821;27;20048;-78
2024/04/24 05:44:33;;;;;;;10.70;6.50;;;;;;;;;;5172407;27;20353;-75
2024/04/24 05:47:03;;;;;;;9.93;6.40;;;;;;;;;;5168686;27;20012;-75
2024/04/24 05:49:28;;;;;;;11.33;6.10;;;;;;;;;;5167224;27;20004;-75
2024/04/24 05:51:54;;;;;;;12.20;6.77;;;;;;;;;;5169172;27;20037;-77
2024/04/24 05:54:19;;;;;;;10.73;6.57;;;;;;;;;;5162820;27;19997;-76
2024/04/24 05:56:45;;;;;;;16.67;6.73;;;;;;;;;;5172814;27;20020;-75
2024/04/24 05:59:10;;;;;;;11.23;6.60;;;;;;;;;;5163670;27;20319;-76
2024/04/24 06:01:36;;;;;;;11.47;6.13;;;;;;;;;;5197857;27;20629;-75
2024/04/24 06:04:01;;;;;;;15.35;6.20;;;;;;;;;;5198024;27;20000;-76
2024/04/24 06:06:27;;;;;;;11.75;6.72;;;;;;;;;;5192278;27;20083;-76
2024/04/24 06:08:53;;;;;;;10.90;6.60;;;;;;;;;;5170915;27;20016;-76
2024/04/24 06:11:18;;;;;;;12.60;6.40;;;;;;;;;;5171282;27;20055;-76
2024/04/24 06:13:44;;;;;;;9.00;5.95;;;;;;;;;;5173080;27;20005;-77
2024/04/24 06:16:10;;;;;;;9.38;6.03;;;;;;;;;;5170777;27;20023;-74
2024/04/24 06:18:36;;;;;;;13.10;6.85;;;;;;;;;;5172834;27;20059;-76
2024/04/24 06:21:02;;;;;;;14.30;7.30;;;;;;;;;;5169128;27;20013;-76
2024/04/24 06:23:27;;;;;;;13.32;6.20;;;;;;;;;;5198084;27;20016;-76
2024/04/24 06:25:53;;;;;;;12.95;6.18;;;;;;;;;;5154848;27;20009;-76
2024/04/24 06:28:20;;;;;;;12.70;6.90;;;;;;;;;;5167973;27;19996;-75
2024/04/24 06:30:45;;;;;;;12.63;6.68;;;;;;;;;;5158364;27;20071;-75
2024/04/24 06:33:11;;;;;;;10.90;6.80;;;;;;;;;;5158318;27;20009;-76
2024/04/24 06:35:37;;;;;;;11.48;6.20;;;;;;;;;;5167192;27;20015;-75
2024/04/24 06:38:02;;;;;;;11.18;6.65;;;;;;;;;;5167715;27;20005;-76
2024/04/24 06:40:28;;;;;;;14.07;6.40;;;;;;;;;;5168110;27;20048;-74
2024/04/24 06:42:54;;;;;;;12.98;6.63;;;;;;;;;;5159166;27;20111;-76
2024/04/24 06:45:19;;;;;;;12.02;6.95;;;;;;;;;;5153971;27;20016;-75
2024/04/24 06:47:45;;;;;;;16.27;6.85;;;;;;;;;;5167249;27;20092;-76
2024/04/24 06:50:11;;;;;;;12.75;7.22;;;;;;;;;;5158692;27;20648;-77
2024/04/24 06:52:37;;;;;;;13.43;7.53;;;;;;;;;;5165018;27;20008;-77
2024/04/24 06:55:03;;;;;;;17.52;7.22;;;;;;;;;;5162263;27;20004;-74
2024/04/24 06:57:29;;;;;;;17.35;7.13;;;;;;;;;;5161344;27;20020;-75
2024/04/24 06:59:54;;;;;;;15.88;7.30;;;;;;;;;;5164143;27;20053;-80
2024/04/24 07:02:20;;;;;;;12.20;6.68;;;;;;;;;;5165247;27;20502;-75
2024/04/24 07:04:46;;;;;;;11.57;6.45;;;;;;;;;;5165502;27;20078;-77
2024/04/24 07:07:12;;;;;;;10.13;6.57;;;;;;;;;;5168659;27;20005;-76
2024/04/24 07:09:37;;;;;;;11.70;7.47;;;;;;;;;;5169007;27;20005;-76
2024/04/24 07:12:03;;;;;;;9.98;6.28;;;;;;;;;;5168989;27;20462;-75
2024/04/24 07:14:29;;;;;;;14.65;7.22;;;;;;;;;;5139611;27;20361;-78
2024/04/24 07:16:55;;;;;;;14.57;7.28;;;;;;;;;;5193041;27;20005;-75
2024/04/24 07:19:20;;;;;;;14.10;7.05;;;;;;;;;;5167107;27;20076;-76
2024/04/24 07:21:46;;;;;;;17.13;7.32;;;;;;;;;;5162587;27;20085;-74
2024/04/24 07:24:12;;;;;;;13.20;6.90;;;;;;;;;;5197452;27;20049;-75
2024/04/24 07:26:41;;;;;;;12.23;6.47;;;;;;;;;;5167291;27;20131;-76
2024/04/24 07:29:07;;;;;;;10.27;6.32;;;;;;;;;;5195222;27;20004;-75
2024/04/24 07:31:33;;;;;;;8.68;5.28;;;;;;;;;;5160335;27;19996;-75
2024/04/24 07:34:00;;;;;;;13.90;7.03;;;;;;;;;;5165542;27;20760;-78
2024/04/24 07:36:26;;;;;;;8.98;6.15;;;;;;;;;;5141152;27;20016;-76
2024/04/24 07:38:52;;;;;;;11.25;5.97;;;;;;;;;;5171881;27;20011;-76
2024/04/24 07:41:18;;;;;;;13.05;6.28;;;;;;;;;;5169410;27;20000;-75
2024/04/24 07:43:45;;;;;;;15.73;6.32;;;;;;;;;;5168982;27;20012;-76
2024/04/24 07:46:11;;;;;;;13.35;7.28;;;;;;;;;;5159252;27;20019;-76
2024/04/24 07:48:37;;;;;;;14.48;6.45;;;;;;;;;;5193071;27;20350;-76
2024/04/24 07:51:03;;;;;;;14.32;6.45;;;;;;;;;;5149300;27;20016;-77
2024/04/24 07:53:28;;;;;;;15.15;7.80;;;;;;;;;;5161959;27;20008;-72
2024/04/24 07:55:54;;;;;;;15.25;7.63;;;;;;;;;;5161958;27;20008;-77
2024/04/24 07:58:24;;;;;;;10.20;6.80;;;;;;;;;;5159551;27;20471;-75
2024/04/24 08:00:52;;;;;;;11.00;6.75;;;;;;;;;;5161681;27;20008;-75
2024/04/24 08:03:17;;;;;;;11.10;6.20;;;;;;;;;;5191186;27;20492;-78
2024/04/24 08:05:43;;;;;;;17.55;6.07;;;;;;;;;;5189203;27;20061;-76
2024/04/24 08:08:09;;;;;;;7.15;5.22;;;;;;;;;;5162746;27;20437;-76
2024/04/24 08:10:34;;;;;;;12.48;6.65;;;;;;;;;;5157467;27;20555;-78
2024/04/24 08:13:01;;;;;;;14.02;6.47;;;;;;;;;;5161762;27;20000;-78
2024/04/24 08:15:27;;;;;;;10.90;6.20;;;;;;;;;;5160429;27;20012;-77
2024/04/24 08:17:52;;;;;;;13.05;7.40;;;;;;;;;;5162062;27;20028;-75
2024/04/24 08:20:18;;;;;;;10.55;6.97;;;;;;;;;;5155028;27;20005;-75
2024/04/24 08:22:44;;;;;;;8.27;5.57;;;;;;;;;;5162923;27;20075;-78
2024/04/24 08:25:09;;;;;;;10.45;6.18;;;;;;;;;;5164850;27;20500;-76
2024/04/24 08:27:35;;;;;;;10.15;6.03;;;;;;;;;;5160948;27;20008;-76
2024/04/24 08:30:01;;;;;;;12.68;7.18;;;;;;;;;;5159346;27;20016;-76
2024/04/24 08:32:27;;;;;;;9.90;5.85;;;;;;;;;;5168445;27;20024;-77
2024/04/24 08:34:53;;;;;;;16.25;6.93;;;;;;;;;;5166443;27;20012;-75
2024/04/24 08:37:19;;;;;;;14.18;5.75;;;;;;;;;;5162154;27;20019;-77
2024/04/24 08:39:45;;;;;;;10.68;6.15;;;;;;;;;;5185971;27;20397;-76
2024/04/24 08:42:11;;;;;;;11.90;5.68;;;;;;;;;;5162372;27;20079;-75
2024/04/24 08:44:38;;;;;;;10.35;6.43;;;;;;;;;;5159643;27;20088;-77
2024/04/24 08:47:04;;;;;;;8.55;5.22;;;;;;;;;;5162736;27;19997;-76
2024/04/24 08:49:33;;;;;;;8.98;5.50;;;;;;;;;;5159811;27;20080;-75
2024/04/24 08:52:01;;;;;;;11.50;5.47;;;;;;;;;;5163379;27;20364;-76
2024/04/24 08:54:30;;;;;;;9.13;5.78;;;;;;;;;;5135434;27;20000;-76
2024/04/24 08:57:02;;;;;;;7.85;5.82;;;;;;;;;;5135368;27;20026;-74
2024/04/24 08:59:47;;;;;;;9.15;5.93;;;;;;;;;;5160390;27;20144;-76
2024/04/24 09:02:19;;;;;;;8.15;5.57;;;;;;;;;;5160417;27;20008;-76
2024/04/24 09:04:49;;;;;;;11.95;5.38;;;;;;;;;;5155679;27;20036;-75
2024/04/24 09:07:21;;;;;;;9.30;5.63;;;;;;;;;;5159572;27;20025;-75
2024/04/24 09:09:47;;;;;;;9.93;5.78;;;;;;;;;;5151485;27;20470;-75
2024/04/24 09:15:26;;;;;;;12.65;5.70;;;;;;;;;;5155520;27;20012;-74
2024/04/24 09:17:53;;;;;;;10.85;5.78;;;;;;;;;;5158326;27;20377;-75
2024/04/24 09:20:23;;;;;;;8.55;5.07;;;;;;;;;;5150751;27;20015;-75
2024/04/24 09:22:59;;;;;;;9.25;4.97;;;;;;;;;;5156261;27;20004;-75
2024/04/24 09:25:34;;;;;;;5.85;3.35;;;;;;;;;;5159467;27;20004;-74
2024/04/24 09:28:20;;;;;;;7.53;3.78;;;;;;;;;;5157268;27;20012;-75
2024/04/24 09:30:53;;;;;;;5.30;3.85;;;;;;;;;;5153289;27;20096;-75
2024/04/24 09:33:22;;;;;;;4.65;3.40;;;;;;;;;;5157114;27;20020;-76
2024/04/24 09:35:51;;;;;;;8.27;4.20;;;;;;;;;;5178102;27;20004;-74
2024/04/24 09:38:32;;;;;;;7.85;4.22;;;;;;;;;;5158241;27;20112;-75
2024/04/24 09:41:39;;;;;;;6.50;4.30;;;;;;;;;;5172926;27;20012;-76
2024/04/24 09:44:13;;;;;;;5.72;4.13;;;;;;;;;;5153073;27;20019;-75
2024/04/24 09:46:53;;;;;;;8.23;4.95;;;;;;;;;;5157483;27;20059;-76
2024/04/24 09:49:23;;;;;;;10.80;5.60;;;;;;;;;;5160867;27;20005;-75
2024/04/24 09:51:50;;;;;;;8.15;4.28;;;;;;;;;;5154887;27;20020;-76
2024/04/24 09:54:42;;;;;;;7.60;5.35;;;;;;;;;;5161608;27;20008;-76
2024/04/24 09:57:12;;;;;;;10.07;5.72;;;;;;;;;;5155244;27;20037;-75
2024/04/24 09:59:49;;;;;;;8.57;5.07;;;;;;;;;;5154214;27;20008;-77
2024/04/24 10:02:19;;;;;;;11.45;5.07;;;;;;;;;;5132913;27;20106;-76
2024/04/24 10:04:52;;;;;;;5.68;4.60;;;;;;;;;;5159600;27;20435;-75
2024/04/24 10:07:19;;;;;;;6.53;4.68;;;;;;;;;;5161510;27;20134;-75
2024/04/24 10:09:51;;;;;;;7.13;4.05;;;;;;;;;;5153994;27;20008;-75
2024/04/24 10:12:50;;;;;;;8.45;4.88;;;;;;;;;;5154392;27;20140;-76
2024/04/24 10:15:19;;;;;;;4.72;3.80;;;;;;;;;;5139857;27;20017;-74
2024/04/24 10:17:54;;;;;;;7.97;4.80;;;;;;;;;;5156342;27;20012;-73
2024/04/24 10:20:22;;;;;;;7.80;5.10;;;;;;;;;;5149646;27;20106;-76
2024/04/24 10:22:50;;;;;;;6.32;3.90;;;;;;;;;;5185222;27;20008;-77
2024/04/24 10:25:20;;;;;;;7.05;4.43;;;;;;;;;;5157834;27;20005;-75
2024/04/24 10:27:48;;;;;;;6.72;3.75;;;;;;;;;;5153705;27;20000;-76
2024/04/24 10:30:16;;;;;;;4.90;3.45;;;;;;;;;;5149934;27;20041;-73
2024/04/24 10:32:43;;;;;;;9.48;3.38;;;;;;;;;;5153103;27;20088;-76
2024/04/24 10:35:10;;;;;;;4.95;3.78;;;;;;;;;;5155555;27;20024;-76
2024/04/24 10:37:37;;;;;;;7.22;3.80;;;;;;;;;;5150536;27;20016;-77
2024/04/24 10:40:04;;;;;;;5.10;3.63;;;;;;;;;;5156093;27;20001;-77
2024/04/24 10:42:30;;;;;;;6.63;3.63;;;;;;;;;;5159978;27;20041;-77
2024/04/24 10:44:56;;;;;;;5.05;3.28;;;;;;;;;;5168552;27;20021;-76
2024/04/24 10:47:22;;;;;;;17.23;14.52;;;;;;;;;;5167595;27;20016;-76
2024/04/24 10:49:55;;;;;;;6.07;3.92;;;;;;;;;;5172725;27;20014;-75
2024/04/24 10:52:22;;;;;;;6.03;3.72;;;;;;;;;;5193904;27;20012;-74
2024/04/24 10:54:48;;;;;;;5.88;3.33;;;;;;;;;;5166509;27;20054;-75
2024/04/24 10:57:13;;;;;;;4.75;3.75;;;;;;;;;;5167518;27;20013;-77
2024/04/24 10:59:45;;;;;;;4.93;3.38;;;;;;;;;;5169110;27;20072;-77
2024/04/24 11:02:12;;;;;;;5.25;3.55;;;;;;;;;;5165992;27;20060;-76
2024/04/24 11:04:37;;;;;;;4.30;2.65;;;;;;;;;;5171497;27;20488;-76
2024/04/24 11:07:03;;;;;;;7.18;3.05;;;;;;;;;;5157946;27;20004;-76
2024/04/24 11:09:29;;;;;;;3.80;2.78;;;;;;;;;;5164433;27;20016;-76
2024/04/24 11:11:58;;;;;;;2.75;2.45;;;;;;;;;;5130969;27;20109;-74
2024/04/24 11:14:25;;;;;;;2.63;2.30;;;;;;;;;;5161641;27;20023;-76
2024/04/24 11:16:59;;;;;;;4.07;2.30;;;;;;;;;;5156509;27;20480;-74
2024/04/24 11:19:24;;;;;;;3.47;2.30;;;;;;;;;;5158982;27;20008;-75
2024/04/24 11:21:50;;;;;;;4.97;2.30;;;;;;;;;;5160189;27;20020;-76
2024/04/24 11:24:26;;;;;;;3.13;2.45;;;;;;;;;;5167417;27;20004;-75
2024/04/24 11:26:51;;;;;;;2.22;1.95;;;;;;;;;;5157981;27;20004;-75
2024/04/24 11:29:17;;;;;;;3.63;2.33;;;;;;;;;;5165652;27;20094;-76
2024/04/24 11:31:45;;;;;;;3.72;2.63;;;;;;;;;;5155619;27;20013;-77
2024/04/24 11:34:11;;;;;;;4.72;2.30;;;;;;;;;;5158949;27;20016;-75
2024/04/24 11:36:39;;;;;;;3.22;2.13;;;;;;;;;;5156955;27;20001;-76
2024/04/24 11:39:06;;;;;;;6.45;3.13;;;;;;;;;;5162872;27;20048;-79
2024/04/24 11:41:36;;;;;;;6.80;4.68;;;;;;;;;;5164812;27;20047;-76
2024/04/24 11:44:03;;;;;;;7.97;2.88;;;;;;;;;;5169831;27;20136;-77
2024/04/24 11:46:29;;;;;;;8.82;3.05;;;;;;;;;;5159563;27;20696;-75
2024/04/24 11:48:56;;;;;;;3.33;2.38;;;;;;;;;;5185841;27;20428;-75
2024/04/24 11:51:23;;;;;;;4.00;2.72;;;;;;;;;;5161023;27;20018;-74
2024/04/24 11:53:50;;;;;;;4.03;3.08;;;;;;;;;;5188934;27;20012;-74
2024/04/24 11:56:22;;;;;;;4.80;2.58;;;;;;;;;;5154078;27;20016;-77
2024/04/24 11:58:47;;;;;;;4.68;2.60;;;;;;;;;;5157648;27;20528;-78
2024/04/24 12:01:15;;;;;;;5.10;3.08;;;;;;;;;;5153285;27;20012;-74
2024/04/24 12:03:43;;;;;;;5.10;3.22;;;;;;;;;;5153134;27;20432;-75
2024/04/24 12:06:08;;;;;;;4.28;3.08;;;;;;;;;;5150132;27;20340;-74
2024/04/24 12:08:34;;;;;;;3.35;2.83;;;;;;;;;;5160343;27;20018;-75
2024/04/24 12:11:04;;;;;;;4.38;3.10;;;;;;;;;;5161896;27;20079;-75
2024/04/24 12:13:34;;;;;;;6.32;3.40;;;;;;;;;;5157696;27;20032;-75
2024/04/24 12:16:01;;;;;;;5.13;3.25;;;;;;;;;;5185005;27;20906;-76
2024/04/24 12:18:28;;;;;;;6.95;3.35;;;;;;;;;;5157170;27;20484;-75
2024/04/24 12:20:54;;;;;;;5.68;3.50;;;;;;;;;;5159237;27;20052;-76
2024/04/24 12:23:24;;;;;;;9.13;3.33;;;;;;;;;;5162942;27;20005;-73
2024/04/24 12:25:50;;;;;;;6.88;3.70;;;;;;;;;;5163139;27;20005;-73
2024/04/24 12:28:16;;;;;;;5.97;3.50;;;;;;;;;;5161961;27;20020;-75
2024/04/24 12:30:42;;;;;;;5.88;4.35;;;;;;;;;;5165282;27;20012;-75
2024/04/24 12:33:09;;;;;;;4.80;3.30;;;;;;;;;;5160792;27;20031;-76
2024/04/24 12:35:36;;;;;;;4.40;3.08;;;;;;;;;;5160623;27;20000;-77
2024/04/24 12:38:05;;;;;;;3.40;2.90;;;;;;;;;;5158543;27;20617;-76
2024/04/24 12:40:36;;;;;;;3.42;2.72;;;;;;;;;;5159500;27;20016;-76
2024/04/24 12:43:03;;;;;;;4.68;3.08;;;;;;;;;;5163117;27;20005;-78
2024/04/24 12:45:31;;;;;;;5.18;2.55;;;;;;;;;;5159103;27;20013;-75
2024/04/24 12:47:57;;;;;;;4.03;2.67;;;;;;;;;;5157155;27;20004;-72
2024/04/24 12:50:22;;;;;;;6.55;3.30;;;;;;;;;;5159573;27;20052;-73
2024/04/24 12:52:48;;;;;;;6.15;3.03;;;;;;;;;;5163702;27;20394;-74
2024/04/24 12:55:15;;;;;;;3.80;2.90;;;;;;;;;;5161351;27;20067;-77
2024/04/24 12:57:41;;;;;;;3.47;2.88;;;;;;;;;;5157681;27;20028;-75
2024/04/24 13:00:08;;;;;;;4.72;3.10;;;;;;;;;;5161537;27;20012;-76
2024/04/24 13:02:41;;;;;;;11.80;3.78;;;;;;;;;;5162919;27;20143;-76
2024/04/24 13:05:06;;;;;;;6.07;3.60;;;;;;;;;;5159442;27;20792;-74
2024/04/24 13:07:33;;;;;;;7.75;4.10;;;;;;;;;;5156454;27;20009;-76
2024/04/24 13:09:59;;;;;;;10.30;4.93;;;;;;;;;;5161660;27;20450;-75
2024/04/24 13:12:25;;;;;;;5.50;4.18;;;;;;;;;;5164903;27;20198;-73
2024/04/24 13:14:50;;;;;;;4.57;4.10;;;;;;;;;;5163670;27;20890;-74
2024/04/24 13:17:16;;;;;;;7.55;4.30;;;;;;;;;;5156896;27;20000;-75
2024/04/24 13:19:42;;;;;;;6.88;4.40;;;;;;;;;;5162465;27;20082;-76
2024/04/24 13:22:08;;;;;;;6.25;4.18;;;;;;;;;;5161501;27;20136;-76
2024/04/24 13:24:33;;;;;;;8.98;4.35;;;;;;;;;;5166951;27;20019;-76
2024/04/24 13:27:00;;;;;;;6.95;4.75;;;;;;;;;;5158780;27;20012;-75
2024/04/24 13:29:25;;;;;;;4.95;4.40;;;;;;;;;;5163429;27;20255;-75
2024/04/24 13:31:51;;;;;;;6.25;4.72;;;;;;;;;;5164096;27;20009;-76
2024/04/24 13:34:17;;;;;;;6.28;4.35;;;;;;;;;;5162618;27;20009;-75
2024/04/24 13:36:42;;;;;;;7.85;5.13;;;;;;;;;;5154331;27;20151;-76
2024/04/24 13:39:08;;;;;;;8.57;5.10;;;;;;;;;;5161235;27;20019;-75
2024/04/24 13:41:34;;;;;;;5.40;4.90;;;;;;;;;;5161669;27;20016;-75
2024/04/24 13:44:02;;;;;;;7.78;5.75;;;;;;;;;;5161455;27;20008;-78
2024/04/24 13:46:27;;;;;;;5.97;4.22;;;;;;;;;;5154424;27;20642;-73
2024/04/24 13:48:56;;;;;;;7.38;4.07;;;;;;;;;;5159640;27;20020;-76
2024/04/24 13:51:23;;;;;;;6.30;4.43;;;;;;;;;;5161690;27;20019;-76
2024/04/24 13:53:52;;;;;;;4.85;4.00;;;;;;;;;;5162343;27;20130;-78
2024/04/24 13:56:18;;;;;;;9.48;4.72;;;;;;;;;;5153927;27;20013;-75
2024/04/24 13:58:43;;;;;;;8.45;4.88;;;;;;;;;;5164692;27;20607;-75
2024/04/24 14:01:12;;;;;;;5.80;4.30;;;;;;;;;;5167188;27;20536;-79
2024/04/24 14:03:38;;;;;;;4.90;4.35;;;;;;;;;;5169283;27;20111;-77
2024/04/24 14:06:04;;;;;;;6.70;4.97;;;;;;;;;;5166898;27;20633;-76
2024/04/24 14:08:30;;;;;;;8.52;4.95;;;;;;;;;;5164982;27;20009;-75
2024/04/24 14:10:55;;;;;;;13.30;6.25;;;;;;;;;;5160649;27;20046;-76
2024/04/24 14:13:21;;;;;;;8.15;6.15;;;;;;;;;;5152825;27;20487;-77
2024/04/24 14:15:46;;;;;;;8.02;6.45;;;;;;;;;;5169933;27;20336;-76
2024/04/24 14:18:12;;;;;;;9.00;6.72;;;;;;;;;;5161263;27;20202;-76
2024/04/24 14:20:37;;;;;;;8.10;6.38;;;;;;;;;;5167981;27;20105;-75
2024/04/24 14:23:03;;;;;;;8.05;6.50;;;;;;;;;;5166102;27;20016;-77
2024/04/24 14:25:29;;;;;;;10.63;6.40;;;;;;;;;;5163764;27;20478;-74
2024/04/24 14:27:55;;;;;;;6.50;5.82;;;;;;;;;;5167102;27;20521;-76
2024/04/24 14:30:20;;;;;;;6.55;5.72;;;;;;;;;;5165845;27;20008;-76
2024/04/24 14:32:46;;;;;;;7.93;5.85;;;;;;;;;;5157320;27;20005;-76
2024/04/24 14:35:13;;;;;;;8.20;6.55;;;;;;;;;;5165439;27;20012;-76
2024/04/24 14:37:40;;;;;;;6.80;6.10;;;;;;;;;;5166999;27;20004;-76
2024/04/24 14:40:06;;;;;;;7.65;6.25;;;;;;;;;;5168532;27;20083;-75
2024/04/24 14:42:32;;;;;;;6.93;6.22;;;;;;;;;;5169063;27;20000;-77
2024/04/24 14:44:58;;;;;;;8.27;6.63;;;;;;;;;;5166612;27;20019;-76